Time;durP1;ratioP1;P1;durP2;ratioP2;P2;SDS_P1;SDS_P2;PMS_P1;PMS_P2;Temp;Humidity;BMP_temperature;BMP_pressure;BME280_temperature;BME280_humidity;BME280_pressure;Samples;Min_cycle;Max_cycle;Signal;HPM_P1;HPM_P2
2024/01/31 00:01:01;;;;;;;3.40;1.17;;;;;;;-148.88;100.00;-17125.47;5075162;28;20084;-84
2024/01/31 00:03:26;;;;;;;2.90;1.00;;;;;;;-148.88;100.00;-17125.47;5073324;28;20024;-83
2024/01/31 00:05:51;;;;;;;5.15;1.40;;;;;;;-148.88;100.00;-17125.47;5073247;28;20035;-84
2024/01/31 00:08:17;;;;;;;3.35;1.30;;;;;;;-148.88;100.00;-17125.47;5074576;28;20024;-84
2024/01/31 00:10:42;;;;;;;3.58;1.27;;;;;;;-148.88;100.00;-17125.47;5074154;28;20538;-85
2024/01/31 00:13:07;;;;;;;4.57;1.02;;;;;;;-148.88;100.00;-17125.47;5074477;28;20025;-84
2024/01/31 00:15:33;;;;;;;1.80;1.00;;;;;;;-148.88;100.00;-17125.47;5074351;28;20028;-84
2024/01/31 00:17:59;;;;;;;2.15;0.90;;;;;;;-148.88;100.00;-17125.47;5074021;28;20033;-84
2024/01/31 00:20:24;;;;;;;1.63;0.65;;;;;;;-148.88;100.00;-17125.47;5073452;28;20086;-84
2024/01/31 00:22:49;;;;;;;3.03;0.90;;;;;;;-148.88;100.00;-17125.47;5073131;28;20020;-84
2024/01/31 00:25:15;;;;;;;2.50;0.70;;;;;;;-148.88;100.00;-17125.47;5074667;28;20078;-84
2024/01/31 00:27:40;;;;;;;1.95;0.60;;;;;;;-148.88;100.00;-17125.47;5074424;28;20086;-84
2024/01/31 00:30:06;;;;;;;2.33;1.00;;;;;;;-148.88;100.00;-17125.47;5074471;28;20020;-84
2024/01/31 00:32:32;;;;;;;3.78;1.23;;;;;;;-148.88;100.00;-17125.47;5075452;28;20116;-84
2024/01/31 00:34:57;;;;;;;1.98;0.60;;;;;;;-148.88;100.00;-17125.47;5075365;28;20056;-83
2024/01/31 00:37:22;;;;;;;1.70;0.68;;;;;;;-148.88;100.00;-17125.47;5077640;28;20031;-83
2024/01/31 00:39:48;;;;;;;4.50;0.77;;;;;;;-148.88;100.00;-17125.47;5073933;28;20024;-85
2024/01/31 00:42:13;;;;;;;2.45;0.80;;;;;;;-148.88;100.00;-17125.47;5073726;28;20016;-85
2024/01/31 00:44:39;;;;;;;4.45;0.90;;;;;;;-148.88;100.00;-17125.47;5072508;28;20047;-84
2024/01/31 00:47:04;;;;;;;2.38;0.70;;;;;;;-148.88;100.00;-17125.47;5072376;28;20039;-85
2024/01/31 00:49:29;;;;;;;4.07;1.10;;;;;;;-148.88;100.00;-17125.47;5072497;28;20024;-84
2024/01/31 00:51:55;;;;;;;4.97;1.27;;;;;;;-148.88;100.00;-17125.47;5073685;28;20016;-83
2024/01/31 00:54:21;;;;;;;7.88;1.42;;;;;;;-148.88;100.00;-17125.47;5072061;28;20070;-84
2024/01/31 00:56:46;;;;;;;5.57;1.00;;;;;;;-148.88;100.00;-17125.47;5073425;28;20055;-84
2024/01/31 00:59:12;;;;;;;2.25;1.02;;;;;;;-148.88;100.00;-17125.47;5073756;28;20066;-84
2024/01/31 01:01:37;;;;;;;2.28;1.05;;;;;;;-148.88;100.00;-17125.47;5072834;28;20031;-84
2024/01/31 01:04:02;;;;;;;2.75;1.63;;;;;;;-148.88;100.00;-17125.47;5072692;28;20032;-84
2024/01/31 01:06:28;;;;;;;4.40;1.30;;;;;;;-148.88;100.00;-17125.47;5073807;28;20472;-84
2024/01/31 01:08:53;;;;;;;3.47;1.17;;;;;;;-148.88;100.00;-17125.47;5072113;28;20032;-84
2024/01/31 01:11:19;;;;;;;4.32;1.30;;;;;;;-148.88;100.00;-17125.47;5071960;28;20023;-84
2024/01/31 01:13:44;;;;;;;3.53;1.48;;;;;;;-148.88;100.00;-17125.47;5071969;28;20120;-84
2024/01/31 01:16:09;;;;;;;4.65;2.10;;;;;;;-148.88;100.00;-17125.47;5072109;28;20470;-84
2024/01/31 01:18:35;;;;;;;4.53;1.70;;;;;;;-148.88;100.00;-17125.47;5073060;28;20056;-84
2024/01/31 01:21:01;;;;;;;3.20;1.27;;;;;;;-148.88;100.00;-17125.47;5073176;28;20024;-84
2024/01/31 01:23:26;;;;;;;3.83;1.10;;;;;;;-148.88;100.00;-17125.47;5071753;28;20403;-83
2024/01/31 01:25:51;;;;;;;8.93;1.70;;;;;;;-148.88;100.00;-17125.47;5073412;28;20013;-83
2024/01/31 01:28:17;;;;;;;6.50;1.42;;;;;;;-148.88;100.00;-17125.47;5071771;28;20082;-84
2024/01/31 01:30:42;;;;;;;3.03;1.13;;;;;;;-148.88;100.00;-17125.47;5071901;28;20070;-83
2024/01/31 01:33:08;;;;;;;3.35;1.25;;;;;;;-148.88;100.00;-17125.47;5073282;28;20021;-84
2024/01/31 01:35:33;;;;;;;2.72;1.25;;;;;;;-148.88;100.00;-17125.47;5073195;28;20031;-84
2024/01/31 01:37:58;;;;;;;1.95;0.77;;;;;;;-148.88;100.00;-17125.47;5072141;28;20066;-83
2024/01/31 01:40:24;;;;;;;4.50;0.88;;;;;;;-148.88;100.00;-17125.47;5073137;28;20020;-83
2024/01/31 01:42:50;;;;;;;2.75;1.52;;;;;;;-148.88;100.00;-17125.47;5073416;28;20027;-82
2024/01/31 01:45:15;;;;;;;3.40;1.23;;;;;;;-148.88;100.00;-17125.47;5072962;28;20012;-84
2024/01/31 01:47:43;;;;;;;3.50;0.82;;;;;;;-148.88;100.00;-17125.47;5073200;28;20077;-83
2024/01/31 01:50:10;;;;;;;3.28;1.05;;;;;;;-148.88;100.00;-17125.47;5073105;28;20021;-84
2024/01/31 01:52:37;;;;;;;2.95;1.27;;;;;;;-148.88;100.00;-17125.47;5071675;28;20024;-84
2024/01/31 01:55:06;;;;;;;1.73;0.80;;;;;;;-148.88;100.00;-17125.47;5073212;28;20025;-84
2024/01/31 01:57:32;;;;;;;3.00;0.80;;;;;;;-148.88;100.00;-17125.47;5076809;28;20420;-84
2024/01/31 01:59:59;;;;;;;3.78;1.00;;;;;;;-148.88;100.00;-17125.47;5075526;28;20024;-84
2024/01/31 02:02:26;;;;;;;3.25;1.25;;;;;;;-148.88;100.00;-17125.47;5076953;28;20040;-84
2024/01/31 02:04:52;;;;;;;2.47;1.00;;;;;;;-148.88;100.00;-17125.47;5076473;28;20016;-84
2024/01/31 02:07:25;;;;;;;4.75;1.45;;;;;;;-148.88;100.00;-17125.47;5075188;28;20039;-83
2024/01/31 02:09:54;;;;;;;7.07;1.00;;;;;;;-148.88;100.00;-17125.47;5076794;28;20021;-82
2024/01/31 02:12:20;;;;;;;2.30;0.82;;;;;;;-148.88;100.00;-17125.47;5075377;28;20107;-84
2024/01/31 02:14:47;;;;;;;4.30;1.10;;;;;;;-148.88;100.00;-17125.47;5075250;28;20558;-84
2024/01/31 02:17:13;;;;;;;3.65;0.90;;;;;;;-148.88;100.00;-17125.47;5076591;28;20197;-84
2024/01/31 02:19:41;;;;;;;2.58;0.90;;;;;;;-148.88;100.00;-17125.47;5074952;28;20115;-83
2024/01/31 02:22:07;;;;;;;1.60;0.70;;;;;;;-148.88;100.00;-17125.47;5075934;28;20036;-83
2024/01/31 02:24:32;;;;;;;1.65;0.70;;;;;;;-148.88;100.00;-17125.47;5075061;28;20063;-84
2024/01/31 02:26:58;;;;;;;5.07;0.98;;;;;;;-148.88;100.00;-17125.47;5076498;28;20028;-84
2024/01/31 02:29:23;;;;;;;5.93;1.10;;;;;;;-148.88;100.00;-17125.47;5075755;28;20028;-84
2024/01/31 02:31:48;;;;;;;2.20;0.88;;;;;;;-148.88;100.00;-17125.47;5076663;28;20047;-83
2024/01/31 02:34:14;;;;;;;2.55;0.82;;;;;;;-148.88;100.00;-17125.47;5075049;28;20016;-84
2024/01/31 02:40:01;;;;;;;2.80;0.93;;;;;;;-148.88;100.00;-17125.47;5077554;28;20085;-84
2024/01/31 02:42:26;;;;;;;5.45;1.02;;;;;;;-148.88;100.00;-17125.47;5075963;28;20103;-84
2024/01/31 02:44:54;;;;;;;1.52;0.50;;;;;;;-148.88;100.00;-17125.47;5074489;28;20023;-84
2024/01/31 02:47:20;;;;;;;4.85;1.00;;;;;;;-148.88;100.00;-17125.47;5074912;28;20057;-84
2024/01/31 02:49:45;;;;;;;1.63;0.65;;;;;;;-148.88;100.00;-17125.47;5075887;28;20020;-84
2024/01/31 02:52:13;;;;;;;2.38;1.00;;;;;;;-148.88;100.00;-17125.47;5076011;28;20095;-83
2024/01/31 02:54:39;;;;;;;3.58;0.90;;;;;;;-148.88;100.00;-17125.47;5074643;28;20020;-83
2024/01/31 02:57:04;;;;;;;4.43;1.23;;;;;;;-148.88;100.00;-17125.47;5075791;28;20398;-83
2024/01/31 02:59:29;;;;;;;1.85;0.65;;;;;;;-148.88;100.00;-17125.47;5075653;28;20501;-84
2024/01/31 03:01:55;;;;;;;4.95;1.95;;;;;;;-148.88;100.00;-17125.47;5075716;28;20032;-84
2024/01/31 03:04:20;;;;;;;1.73;0.68;;;;;;;-148.88;100.00;-17125.47;5077518;28;20026;-84
2024/01/31 03:06:45;;;;;;;2.78;0.80;;;;;;;-148.88;100.00;-17125.47;5075552;28;20360;-84
2024/01/31 03:09:11;;;;;;;3.80;1.10;;;;;;;-148.88;100.00;-17125.47;5075515;28;20112;-82
2024/01/31 03:11:36;;;;;;;3.42;1.00;;;;;;;-148.88;100.00;-17125.47;5074294;28;20031;-83
2024/01/31 03:14:02;;;;;;;4.30;1.30;;;;;;;-148.88;100.00;-17125.47;5075871;28;20150;-83
2024/01/31 03:16:27;;;;;;;3.42;1.30;;;;;;;-148.88;100.00;-17125.47;5074752;28;20016;-83
2024/01/31 03:18:55;;;;;;;2.28;1.20;;;;;;;-148.88;100.00;-17125.47;5074538;28;20123;-83
2024/01/31 03:21:21;;;;;;;4.70;1.38;;;;;;;-148.88;100.00;-17125.47;5075365;28;20082;-83
2024/01/31 03:23:47;;;;;;;6.35;1.20;;;;;;;-148.88;100.00;-17125.47;5074901;28;20475;-84
2024/01/31 03:26:12;;;;;;;2.80;1.25;;;;;;;-148.88;100.00;-17125.47;5075114;28;20017;-83
2024/01/31 03:28:37;;;;;;;3.65;1.85;;;;;;;-148.88;100.00;-17125.47;5074920;28;20028;-83
2024/01/31 03:31:03;;;;;;;2.70;1.17;;;;;;;-148.88;100.00;-17125.47;5074125;28;20031;-83
2024/01/31 03:33:32;;;;;;;5.80;1.77;;;;;;;-148.88;100.00;-17125.47;5075443;28;20136;-83
2024/01/31 03:35:57;;;;;;;3.22;1.50;;;;;;;-148.88;100.00;-17125.47;5075181;28;20104;-83
2024/01/31 03:38:23;;;;;;;3.72;1.30;;;;;;;-148.88;100.00;-17125.47;5073929;28;20028;-83
2024/01/31 03:40:48;;;;;;;4.80;1.45;;;;;;;-148.88;100.00;-17125.47;5073584;28;20021;-83
2024/01/31 03:43:14;;;;;;;5.05;1.65;;;;;;;-148.88;100.00;-17125.47;5074845;28;20078;-83
2024/01/31 03:45:39;;;;;;;5.70;2.30;;;;;;;-148.88;100.00;-17125.47;5075164;28;20063;-82
2024/01/31 03:48:05;;;;;;;4.40;1.98;;;;;;;-148.88;100.00;-17125.47;5075257;28;20020;-83
2024/01/31 03:50:30;;;;;;;3.38;1.52;;;;;;;-148.88;100.00;-17125.47;5075891;28;20040;-83
2024/01/31 03:52:56;;;;;;;5.85;1.27;;;;;;;-148.88;100.00;-17125.47;5073631;28;20482;-83
2024/01/31 03:55:21;;;;;;;10.02;1.50;;;;;;;-148.88;100.00;-17125.47;5073567;28;20029;-83
2024/01/31 03:57:46;;;;;;;5.18;1.58;;;;;;;-148.88;100.00;-17125.47;5073696;28;20048;-83
2024/01/31 04:00:12;;;;;;;3.63;0.82;;;;;;;-148.88;100.00;-17125.47;5074546;28;20023;-83
2024/01/31 04:02:38;;;;;;;2.47;1.10;;;;;;;-148.88;100.00;-17125.47;5074441;28;20031;-83
2024/01/31 04:05:03;;;;;;;4.07;1.15;;;;;;;-148.88;100.00;-17125.47;5074377;28;20471;-83
2024/01/31 04:07:29;;;;;;;3.38;1.15;;;;;;;-148.88;100.00;-17125.47;5074498;28;20057;-84
2024/01/31 04:09:54;;;;;;;2.00;1.00;;;;;;;-148.88;100.00;-17125.47;5074025;28;20116;-85
2024/01/31 04:12:20;;;;;;;4.80;1.10;;;;;;;-148.88;100.00;-17125.47;5073373;28;20107;-84
2024/01/31 04:14:45;;;;;;;2.10;0.75;;;;;;;-148.88;100.00;-17125.47;5073068;28;20027;-83
2024/01/31 04:17:11;;;;;;;1.08;0.60;;;;;;;-148.88;100.00;-17125.47;5074387;28;20555;-83
2024/01/31 04:19:36;;;;;;;1.55;0.60;;;;;;;-148.88;100.00;-17125.47;5073746;28;20024;-83
2024/01/31 04:22:05;;;;;;;1.65;0.40;;;;;;;-148.88;100.00;-17125.47;5073102;28;20027;-83
2024/01/31 04:24:30;;;;;;;2.70;0.63;;;;;;;-148.88;100.00;-17125.47;5075027;28;20028;-83
2024/01/31 04:26:55;;;;;;;2.58;0.50;;;;;;;-148.88;100.00;-17125.47;5073016;28;20023;-83
2024/01/31 04:29:21;;;;;;;1.65;0.50;;;;;;;-148.88;100.00;-17125.47;5074808;28;20028;-83
2024/01/31 04:31:52;;;;;;;2.17;0.65;;;;;;;-148.88;100.00;-17125.47;5074289;28;20497;-82
2024/01/31 04:34:19;;;;;;;4.50;0.73;;;;;;;-148.88;100.00;-17125.47;5073602;28;20395;-83
2024/01/31 04:36:45;;;;;;;1.50;0.50;;;;;;;-148.88;100.00;-17125.47;5073298;28;20016;-83
2024/01/31 04:39:10;;;;;;;1.08;0.55;;;;;;;-148.88;100.00;-17125.47;5074294;28;20028;-83
2024/01/31 04:41:35;;;;;;;1.08;0.40;;;;;;;-148.88;100.00;-17125.47;5073639;28;20032;-83
2024/01/31 04:44:01;;;;;;;2.30;0.50;;;;;;;-148.88;100.00;-17125.47;5073859;28;20039;-84
2024/01/31 04:46:26;;;;;;;1.40;0.55;;;;;;;-148.88;100.00;-17125.47;5072786;28;20025;-83
2024/01/31 04:48:52;;;;;;;0.90;0.38;;;;;;;-148.88;100.00;-17125.47;5072563;28;20426;-83
2024/01/31 04:51:17;;;;;;;1.35;0.50;;;;;;;-148.88;100.00;-17125.47;5072416;28;20091;-83
2024/01/31 04:53:42;;;;;;;0.63;0.45;;;;;;;-148.88;100.00;-17125.47;5072886;28;20043;-84
2024/01/31 04:56:10;;;;;;;1.50;0.63;;;;;;;-148.88;100.00;-17125.47;5073476;28;20028;-83
2024/01/31 04:58:36;;;;;;;1.45;0.60;;;;;;;-148.88;100.00;-17125.47;5073056;28;20030;-83
2024/01/31 05:01:01;;;;;;;1.42;0.50;;;;;;;-148.88;100.00;-17125.47;5073719;28;20028;-83
2024/01/31 05:03:27;;;;;;;1.20;0.47;;;;;;;-148.88;100.00;-17125.47;5072620;28;20020;-83
2024/01/31 05:05:53;;;;;;;1.90;0.70;;;;;;;-148.88;100.00;-17125.47;5072647;28;20027;-83
2024/01/31 05:08:18;;;;;;;2.22;0.95;;;;;;;-148.88;100.00;-17125.47;5073762;28;20021;-83
2024/01/31 05:10:45;;;;;;;1.88;0.50;;;;;;;-148.88;100.00;-17125.47;5074221;28;20036;-83
2024/01/31 05:13:12;;;;;;;1.25;0.50;;;;;;;-148.88;100.00;-17125.47;5072058;28;20028;-83
2024/01/31 05:15:38;;;;;;;4.03;0.70;;;;;;;-148.88;100.00;-17125.47;5073727;28;20391;-83
2024/01/31 05:18:08;;;;;;;1.38;0.45;;;;;;;-148.88;100.00;-17125.47;5072244;28;20104;-84
2024/01/31 05:20:34;;;;;;;2.65;0.52;;;;;;;-148.88;100.00;-17125.47;5074546;28;20036;-83
2024/01/31 05:23:00;;;;;;;4.78;0.70;;;;;;;-148.88;100.00;-17125.47;5074216;28;20032;-83
2024/01/31 05:25:25;;;;;;;1.75;0.65;;;;;;;-148.88;100.00;-17125.47;5073681;28;20017;-83
2024/01/31 05:27:50;;;;;;;3.38;0.68;;;;;;;-148.88;100.00;-17125.47;5073456;28;20021;-83
2024/01/31 05:30:16;;;;;;;2.17;0.60;;;;;;;-148.88;100.00;-17125.47;5078090;28;20391;-83
2024/01/31 05:32:41;;;;;;;4.35;1.10;;;;;;;-148.88;100.00;-17125.47;5080434;28;20035;-83
2024/01/31 05:35:07;;;;;;;1.88;0.98;;;;;;;-148.88;100.00;-17125.47;5080128;28;20051;-83
2024/01/31 05:37:33;;;;;;;6.07;0.88;;;;;;;-148.88;100.00;-17125.47;5080833;28;20442;-83
2024/01/31 05:39:59;;;;;;;5.35;1.52;;;;;;;-148.88;100.00;-17125.47;5078974;28;20029;-82
2024/01/31 05:42:24;;;;;;;5.47;1.23;;;;;;;-148.88;100.00;-17125.47;5078628;28;20051;-82
2024/01/31 05:44:53;;;;;;;4.72;1.00;;;;;;;-148.88;100.00;-17125.47;5080132;28;20035;-83
2024/01/31 05:47:18;;;;;;;3.78;1.38;;;;;;;-148.88;100.00;-17125.47;5078931;28;20028;-83
2024/01/31 05:49:44;;;;;;;3.80;1.48;;;;;;;-148.88;100.00;-17125.47;5080044;28;20039;-83
2024/01/31 05:52:09;;;;;;;5.53;1.65;;;;;;;-148.88;100.00;-17125.47;5081048;28;20027;-84
2024/01/31 05:54:35;;;;;;;4.25;1.33;;;;;;;-148.88;100.00;-17125.47;5078426;28;20021;-83
2024/01/31 05:57:00;;;;;;;2.83;1.23;;;;;;;-148.88;100.00;-17125.47;5078345;28;20105;-85
2024/01/31 05:59:26;;;;;;;4.35;1.48;;;;;;;-148.88;100.00;-17125.47;5080260;28;20028;-85
2024/01/31 06:01:53;;;;;;;4.78;1.33;;;;;;;-148.88;100.00;-17125.47;5079787;28;20382;-86
2024/01/31 06:04:19;;;;;;;2.97;1.48;;;;;;;-148.88;100.00;-17125.47;5079705;28;20020;-85
2024/01/31 06:06:44;;;;;;;2.67;0.95;;;;;;;-148.88;100.00;-17125.47;5078292;28;20116;-86
2024/01/31 06:09:12;;;;;;;3.75;1.85;;;;;;;-148.88;100.00;-17125.47;5079034;28;20379;-86
2024/01/31 06:11:37;;;;;;;3.47;1.38;;;;;;;-148.88;100.00;-17125.47;5079665;28;20052;-85
2024/01/31 06:14:02;;;;;;;5.05;1.52;;;;;;;-148.88;100.00;-17125.47;5079730;28;20479;-86
2024/01/31 06:16:29;;;;;;;4.57;1.85;;;;;;;-148.88;100.00;-17125.47;5079319;28;20027;-86
2024/01/31 06:18:54;;;;;;;3.60;1.45;;;;;;;-148.88;100.00;-17125.47;5079438;28;20028;-86
2024/01/31 06:21:20;;;;;;;6.45;1.30;;;;;;;-148.88;100.00;-17125.47;5079493;28;20499;-85
2024/01/31 06:23:46;;;;;;;4.18;1.73;;;;;;;-148.88;100.00;-17125.47;5077963;28;20025;-86
2024/01/31 06:26:12;;;;;;;3.10;1.40;;;;;;;-148.88;100.00;-17125.47;5078530;28;20020;-86
2024/01/31 06:28:38;;;;;;;6.32;1.45;;;;;;;-148.88;100.00;-17125.47;5079847;28;20025;-86
2024/01/31 06:31:24;;;;;;;4.07;1.70;;;;;;;-148.88;100.00;-17125.47;5077367;28;20044;-87
2024/01/31 06:33:50;;;;;;;5.18;1.60;;;;;;;-148.88;100.00;-17125.47;5079471;28;20021;-86
2024/01/31 06:36:15;;;;;;;6.93;1.63;;;;;;;-148.88;100.00;-17125.47;5078791;28;20017;-84
2024/01/31 06:38:41;;;;;;;5.00;2.17;;;;;;;-148.88;100.00;-17125.47;5080167;28;20024;-85
2024/01/31 06:41:07;;;;;;;4.25;1.40;;;;;;;-148.88;100.00;-17125.47;5078140;28;20475;-85
2024/01/31 06:43:33;;;;;;;4.00;1.65;;;;;;;-148.88;100.00;-17125.47;5076186;28;20478;-88
2024/01/31 06:45:58;;;;;;;4.22;1.50;;;;;;;-148.88;100.00;-17125.47;5077001;28;20031;-87
2024/01/31 06:48:24;;;;;;;6.53;2.03;;;;;;;-148.88;100.00;-17125.47;5076482;28;20028;-86
2024/01/31 06:50:50;;;;;;;4.22;1.60;;;;;;;-148.88;100.00;-17125.47;5074634;28;20074;-86
2024/01/31 06:53:15;;;;;;;4.28;1.55;;;;;;;-148.88;100.00;-17125.47;5074591;28;20020;-85
2024/01/31 06:55:41;;;;;;;5.05;2.10;;;;;;;-148.88;100.00;-17125.47;5074556;28;20024;-86
2024/01/31 06:58:06;;;;;;;4.82;1.75;;;;;;;-148.88;100.00;-17125.47;5075709;28;20058;-87
2024/01/31 07:00:32;;;;;;;6.38;1.65;;;;;;;-148.88;100.00;-17125.47;5075925;28;20058;-84
2024/01/31 07:02:57;;;;;;;3.83;1.63;;;;;;;-148.88;100.00;-17125.47;5074706;28;20447;-84
2024/01/31 07:05:23;;;;;;;3.03;1.60;;;;;;;-148.88;100.00;-17125.47;5074312;28;20032;-86
2024/01/31 07:07:50;;;;;;;5.05;1.80;;;;;;;-148.88;100.00;-17125.47;5075463;28;20028;-86
2024/01/31 07:10:15;;;;;;;3.30;1.42;;;;;;;-148.88;100.00;-17125.47;5074610;28;20078;-85
2024/01/31 07:12:41;;;;;;;4.35;1.48;;;;;;;-148.88;100.00;-17125.47;5074529;28;20395;-85
2024/01/31 07:15:06;;;;;;;2.47;1.08;;;;;;;-148.88;100.00;-17125.47;5074043;28;20111;-86
2024/01/31 07:17:32;;;;;;;2.80;0.90;;;;;;;-148.88;100.00;-17125.47;5075304;28;20074;-84
2024/01/31 07:19:57;;;;;;;2.42;0.73;;;;;;;-148.88;100.00;-17125.47;5074356;28;20503;-85
2024/01/31 07:22:23;;;;;;;2.92;1.10;;;;;;;-148.88;100.00;-17125.47;5075366;28;20028;-84
2024/01/31 07:24:48;;;;;;;2.80;0.65;;;;;;;-148.88;100.00;-17125.47;5075122;28;20027;-85
2024/01/31 07:27:13;;;;;;;3.80;0.93;;;;;;;-148.88;100.00;-17125.47;5075262;28;20140;-85
2024/01/31 07:29:39;;;;;;;3.50;1.10;;;;;;;-148.88;100.00;-17125.47;5075089;28;20027;-84
2024/01/31 07:32:05;;;;;;;1.27;0.60;;;;;;;-148.88;100.00;-17125.47;5074973;28;20021;-84
2024/01/31 07:34:30;;;;;;;2.78;0.73;;;;;;;-148.88;100.00;-17125.47;5074944;28;20024;-85
2024/01/31 07:36:56;;;;;;;1.38;0.60;;;;;;;-148.88;100.00;-17125.47;5073633;28;20028;-86
2024/01/31 07:39:21;;;;;;;1.40;0.70;;;;;;;-148.88;100.00;-17125.47;5075122;28;20024;-86
2024/01/31 07:41:47;;;;;;;1.65;0.68;;;;;;;-148.88;100.00;-17125.47;5074520;28;20111;-85
2024/01/31 07:44:13;;;;;;;1.73;0.73;;;;;;;-148.88;100.00;-17125.47;5075146;28;20086;-86
2024/01/31 07:46:39;;;;;;;2.80;1.10;;;;;;;-148.88;100.00;-17125.47;5074316;28;20021;-85
2024/01/31 07:49:06;;;;;;;4.72;1.00;;;;;;;-148.88;100.00;-17125.47;5073196;28;20032;-85
2024/01/31 07:51:31;;;;;;;2.67;1.27;;;;;;;-148.88;100.00;-17125.47;5073224;28;20037;-85
2024/01/31 07:53:57;;;;;;;6.35;1.30;;;;;;;-148.88;100.00;-17125.47;5074952;28;20028;-85
2024/01/31 07:56:22;;;;;;;4.63;1.20;;;;;;;-148.88;100.00;-17125.47;5074615;28;20081;-86
2024/01/31 07:58:47;;;;;;;3.03;1.25;;;;;;;-148.88;100.00;-17125.47;5074475;28;20024;-85
2024/01/31 08:01:13;;;;;;;3.20;1.40;;;;;;;-148.88;100.00;-17125.47;5074155;28;20467;-85
2024/01/31 08:03:42;;;;;;;2.72;1.25;;;;;;;-148.88;100.00;-17125.47;5075088;28;20024;-85
2024/01/31 08:06:07;;;;;;;4.35;1.42;;;;;;;-148.88;100.00;-17125.47;5074324;28;20468;-85
2024/01/31 08:08:33;;;;;;;3.08;1.10;;;;;;;-148.88;100.00;-17125.47;5073188;28;20052;-85
2024/01/31 08:11:02;;;;;;;3.03;1.10;;;;;;;-148.88;100.00;-17125.47;5074390;28;20024;-86
2024/01/31 08:13:27;;;;;;;2.70;0.80;;;;;;;-148.88;100.00;-17125.47;5072433;28;20123;-86
2024/01/31 08:15:53;;;;;;;3.17;0.80;;;;;;;-148.88;100.00;-17125.47;5074493;28;20128;-85
2024/01/31 08:18:18;;;;;;;2.35;0.90;;;;;;;-148.88;100.00;-17125.47;5072559;28;20507;-86
2024/01/31 08:20:43;;;;;;;6.82;1.40;;;;;;;-148.88;100.00;-17125.47;5074736;28;20060;-84
2024/01/31 08:23:09;;;;;;;3.05;1.27;;;;;;;-148.88;100.00;-17125.47;5073029;28;20024;-85
2024/01/31 08:25:34;;;;;;;5.60;1.48;;;;;;;-148.88;100.00;-17125.47;5075144;28;20535;-86
2024/01/31 08:28:00;;;;;;;3.63;1.23;;;;;;;-148.88;100.00;-17125.47;5075646;28;20024;-86
2024/01/31 08:30:26;;;;;;;4.45;1.58;;;;;;;-148.88;100.00;-17125.47;5074450;28;20103;-86
2024/01/31 08:32:52;;;;;;;4.80;1.25;;;;;;;-148.88;100.00;-17125.47;5072748;28;20075;-85
2024/01/31 08:35:20;;;;;;;4.25;1.52;;;;;;;-148.88;100.00;-17125.47;5072720;28;20074;-86
2024/01/31 08:37:46;;;;;;;2.38;1.30;;;;;;;-148.88;100.00;-17125.47;5072868;28;20111;-86
2024/01/31 08:40:12;;;;;;;5.63;1.00;;;;;;;-148.88;100.00;-17125.47;5072519;28;20115;-86
2024/01/31 08:42:38;;;;;;;4.47;1.30;;;;;;;-148.88;100.00;-17125.47;5073267;28;20024;-86
2024/01/31 08:45:09;;;;;;;1.98;0.90;;;;;;;-148.88;100.00;-17125.47;5072732;28;20036;-85
2024/01/31 08:47:35;;;;;;;2.17;1.17;;;;;;;-148.88;100.00;-17125.47;5073552;28;20028;-86
2024/01/31 08:50:01;;;;;;;3.33;1.20;;;;;;;-148.88;100.00;-17125.47;5072450;28;20032;-86
2024/01/31 08:52:26;;;;;;;2.75;1.17;;;;;;;-148.88;100.00;-17125.47;5072667;28;20391;-87
2024/01/31 08:54:51;;;;;;;3.97;1.10;;;;;;;-148.88;100.00;-17125.47;5073311;28;20494;-87
2024/01/31 08:57:17;;;;;;;2.47;0.90;;;;;;;-148.88;100.00;-17125.47;5073710;28;20399;-87
2024/01/31 08:59:42;;;;;;;3.22;1.23;;;;;;;-148.88;100.00;-17125.47;5072217;28;20024;-87
2024/01/31 09:02:08;;;;;;;1.85;0.85;;;;;;;-148.88;100.00;-17125.47;5073613;28;20093;-86
2024/01/31 09:04:37;;;;;;;2.58;1.13;;;;;;;-148.88;100.00;-17125.47;5071803;28;20032;-86
2024/01/31 09:07:02;;;;;;;1.15;0.63;;;;;;;-148.88;100.00;-17125.47;5072330;28;20020;-86
2024/01/31 09:09:28;;;;;;;2.45;0.82;;;;;;;-148.88;100.00;-17125.47;5072141;28;20020;-86
2024/01/31 09:11:53;;;;;;;1.67;0.85;;;;;;;-148.88;100.00;-17125.47;5072198;28;20020;-87
2024/01/31 09:14:18;;;;;;;3.55;0.70;;;;;;;-148.88;100.00;-17125.47;5073250;28;20025;-85
2024/01/31 09:16:44;;;;;;;2.95;1.00;;;;;;;-148.88;100.00;-17125.47;5073431;28;20025;-85
2024/01/31 09:19:09;;;;;;;3.58;1.20;;;;;;;-148.88;100.00;-17125.47;5072386;28;20044;-85
2024/01/31 09:21:35;;;;;;;2.15;0.90;;;;;;;-148.88;100.00;-17125.47;5073344;28;20024;-85
2024/01/31 09:24:01;;;;;;;5.43;1.42;;;;;;;-148.88;100.00;-17125.47;5072026;28;20120;-85
2024/01/31 09:26:26;;;;;;;5.03;1.25;;;;;;;-148.88;100.00;-17125.47;5072877;28;20070;-85
2024/01/31 09:28:52;;;;;;;2.65;0.80;;;;;;;-148.88;100.00;-17125.47;5073211;28;20139;-84
2024/01/31 09:31:23;;;;;;;1.92;0.82;;;;;;;-148.88;100.00;-17125.47;5073558;28;20051;-85
2024/01/31 09:33:50;;;;;;;1.88;0.85;;;;;;;-148.88;100.00;-17125.47;5073592;28;20098;-85
2024/01/31 09:36:15;;;;;;;2.30;0.90;;;;;;;-148.88;100.00;-17125.47;5073372;28;20039;-84
2024/01/31 09:38:41;;;;;;;4.50;0.80;;;;;;;-148.88;100.00;-17125.47;5072153;28;20046;-85
2024/01/31 09:41:06;;;;;;;2.63;0.70;;;;;;;-148.88;100.00;-17125.47;5073310;28;20028;-86
2024/01/31 09:43:32;;;;;;;4.13;0.90;;;;;;;-148.88;100.00;-17125.47;5072865;28;20104;-85
2024/01/31 09:46:03;;;;;;;1.33;0.50;;;;;;;-148.88;100.00;-17125.47;5071776;28;20540;-86
2024/01/31 09:48:29;;;;;;;3.10;0.90;;;;;;;-148.88;100.00;-17125.47;5071801;28;20025;-86
2024/01/31 09:50:55;;;;;;;2.33;0.90;;;;;;;-148.88;100.00;-17125.47;5071647;28;20029;-86
2024/01/31 09:53:22;;;;;;;4.47;1.05;;;;;;;-148.88;100.00;-17125.47;5072690;28;20028;-86
2024/01/31 09:55:52;;;;;;;2.58;0.70;;;;;;;-148.88;100.00;-17125.47;5072905;28;20028;-86
2024/01/31 09:58:18;;;;;;;2.45;0.80;;;;;;;-148.88;100.00;-17125.47;5072885;28;20039;-86
2024/01/31 10:00:44;;;;;;;2.95;0.70;;;;;;;-148.88;100.00;-17125.47;5072864;28;20056;-85
2024/01/31 10:03:10;;;;;;;2.78;1.20;;;;;;;-148.88;100.00;-17125.47;5071557;28;20383;-87
2024/01/31 10:05:35;;;;;;;2.17;0.90;;;;;;;-148.88;100.00;-17125.47;5071572;28;20050;-86
2024/01/31 10:08:04;;;;;;;1.63;0.90;;;;;;;-148.88;100.00;-17125.47;5071587;28;20028;-87
2024/01/31 10:10:30;;;;;;;2.72;1.23;;;;;;;-148.88;100.00;-17125.47;5073298;28;20030;-85
2024/01/31 10:12:56;;;;;;;3.80;1.50;;;;;;;-148.88;100.00;-17125.47;5073401;28;20028;-85
2024/01/31 10:15:21;;;;;;;3.55;1.58;;;;;;;-148.88;100.00;-17125.47;5072728;28;20029;-85
2024/01/31 10:17:47;;;;;;;3.72;1.52;;;;;;;-148.88;100.00;-17125.47;5075961;28;20032;-85
2024/01/31 10:20:16;;;;;;;4.30;1.20;;;;;;;-148.88;100.00;-17125.47;5075680;28;20375;-85
2024/01/31 10:22:43;;;;;;;3.05;0.98;;;;;;;-148.88;100.00;-17125.47;5075579;28;20031;-84
2024/01/31 10:25:18;;;;;;;2.03;0.80;;;;;;;-148.88;100.00;-17125.47;5074813;28;20101;-85
2024/01/31 10:27:47;;;;;;;3.33;1.30;;;;;;;-148.88;100.00;-17125.47;5075089;28;20025;-85
2024/01/31 10:30:14;;;;;;;2.15;0.80;;;;;;;-148.88;100.00;-17125.47;5075064;28;20035;-85
2024/01/31 10:32:41;;;;;;;3.78;1.25;;;;;;;-148.88;100.00;-17125.47;5075237;28;20036;-85
2024/01/31 10:35:07;;;;;;;4.13;0.90;;;;;;;-148.88;100.00;-17125.47;5074741;28;20107;-85
2024/01/31 10:37:33;;;;;;;2.40;0.98;;;;;;;-148.88;100.00;-17125.47;5075933;28;20025;-85
2024/01/31 10:40:02;;;;;;;3.20;1.35;;;;;;;-148.88;100.00;-17125.47;5074686;28;20035;-85
2024/01/31 10:42:29;;;;;;;3.38;1.30;;;;;;;-148.88;100.00;-17125.47;5074540;28;20031;-85
2024/01/31 10:44:54;;;;;;;2.30;0.95;;;;;;;-148.88;100.00;-17125.47;5074809;28;20128;-85
2024/01/31 10:47:19;;;;;;;3.10;1.08;;;;;;;-148.88;100.00;-17125.47;5074880;28;20111;-85
2024/01/31 10:49:45;;;;;;;4.10;1.02;;;;;;;-148.88;100.00;-17125.47;5076115;28;20029;-86
2024/01/31 10:52:17;;;;;;;2.42;0.80;;;;;;;-148.88;100.00;-17125.47;5075220;28;20113;-85
2024/01/31 10:54:55;;;;;;;1.85;0.80;;;;;;;-148.88;100.00;-17125.47;5075964;28;20463;-85
2024/01/31 10:57:21;;;;;;;2.00;0.98;;;;;;;-148.88;100.00;-17125.47;5074669;28;20033;-85
2024/01/31 10:59:50;;;;;;;2.58;1.25;;;;;;;-148.88;100.00;-17125.47;5075610;28;20031;-86